Time;durP1;ratioP1;P1;durP2;ratioP2;P2;SDS_P1;SDS_P2;PMS_P1;PMS_P2;Temp;Humidity;BMP_temperature;BMP_pressure;BME280_temperature;BME280_humidity;BME280_pressure;Samples;Min_cycle;Max_cycle;Signal;HPM_P1;HPM_P2
2021/01/22 00:01:05;;;;;;;1.30;1.15;;;9.50;99.90;;;;;;5027963;28;20272;-72
2021/01/22 00:03:32;;;;;;;1.83;1.40;;;9.50;99.90;;;;;;5028064;28;20351;-72
2021/01/22 00:05:59;;;;;;;1.10;1.00;;;9.40;99.90;;;;;;5028181;28;20222;-72
2021/01/22 00:08:25;;;;;;;1.40;1.20;;;9.30;99.90;;;;;;5028611;28;20264;-72
2021/01/22 00:10:52;;;;;;;1.52;1.42;;;9.30;99.90;;;;;;5028719;28;20692;-72
2021/01/22 00:13:19;;;;;;;1.60;1.25;;;9.20;99.90;;;;;;5027481;28;20198;-72
2021/01/22 00:15:46;;;;;;;1.23;1.13;;;9.10;99.90;;;;;;5028975;28;20241;-72
2021/01/22 00:18:12;;;;;;;1.40;1.20;;;9.00;99.90;;;;;;5029125;28;20775;-74
2021/01/22 00:20:39;;;;;;;1.58;1.30;;;9.00;99.90;;;;;;5030788;28;20274;-71
2021/01/22 00:23:05;;;;;;;1.55;1.45;;;8.90;99.90;;;;;;5032066;28;20267;-71
2021/01/22 00:25:31;;;;;;;2.25;1.35;;;8.90;99.90;;;;;;5033721;28;20225;-71
2021/01/22 00:27:58;;;;;;;1.80;1.30;;;8.80;99.90;;;;;;5033863;28;20202;-71
2021/01/22 00:30:24;;;;;;;1.67;1.17;;;8.70;99.90;;;;;;5033707;28;20224;-72
2021/01/22 00:32:51;;;;;;;1.52;1.40;;;8.70;99.90;;;;;;5036273;28;20197;-71
2021/01/22 00:35:17;;;;;;;1.10;1.00;;;8.70;99.90;;;;;;5052595;28;20266;-71
2021/01/22 00:37:44;;;;;;;1.17;0.90;;;8.70;99.90;;;;;;5053473;28;20201;-71
2021/01/22 00:40:10;;;;;;;1.85;1.33;;;8.60;99.90;;;;;;5052544;28;20221;-72
2021/01/22 00:42:37;;;;;;;1.23;1.00;;;8.60;99.90;;;;;;5052561;28;20204;-71
2021/01/22 00:45:05;;;;;;;1.50;1.00;;;8.60;99.90;;;;;;5052296;28;20213;-71
2021/01/22 00:47:31;;;;;;;1.00;0.90;;;8.60;99.90;;;;;;5052025;28;20200;-71
2021/01/22 00:49:58;;;;;;;1.48;1.20;;;8.50;99.90;;;;;;5052708;28;20193;-71
2021/01/22 00:52:24;;;;;;;5.65;1.27;;;8.50;99.90;;;;;;5051586;28;20204;-71
2021/01/22 00:54:50;;;;;;;2.20;1.13;;;8.50;99.90;;;;;;5052873;28;20647;-72
2021/01/22 00:57:16;;;;;;;1.35;1.15;;;8.50;99.90;;;;;;5053527;28;20210;-72
2021/01/22 00:59:43;;;;;;;1.00;0.90;;;8.40;99.90;;;;;;5053005;28;20270;-71
2021/01/22 01:02:09;;;;;;;1.85;1.30;;;8.40;99.90;;;;;;5052613;28;20620;-72
2021/01/22 01:04:35;;;;;;;1.33;1.10;;;8.40;99.90;;;;;;5052460;28;20794;-71
2021/01/22 01:07:03;;;;;;;1.15;1.00;;;8.30;99.90;;;;;;5052986;28;20531;-71
2021/01/22 01:09:29;;;;;;;1.42;1.20;;;8.30;99.90;;;;;;5053136;28;20193;-71
2021/01/22 01:11:55;;;;;;;1.70;1.30;;;8.40;99.90;;;;;;5050689;28;20205;-71
2021/01/22 01:14:21;;;;;;;3.17;1.10;;;8.30;99.90;;;;;;5053116;28;20279;-71
2021/01/22 01:16:48;;;;;;;1.00;0.90;;;8.30;99.90;;;;;;5051570;28;20610;-71
2021/01/22 01:19:14;;;;;;;1.70;1.20;;;8.30;99.90;;;;;;5051403;28;20201;-71
2021/01/22 01:21:40;;;;;;;1.27;1.17;;;8.40;99.90;;;;;;5052340;28;20209;-70
2021/01/22 01:24:08;;;;;;;2.90;1.10;;;8.30;99.90;;;;;;5052770;28;20208;-71
2021/01/22 01:26:34;;;;;;;1.00;0.90;;;8.30;99.90;;;;;;5053067;28;20756;-72
2021/01/22 01:29:01;;;;;;;1.17;1.00;;;8.30;99.90;;;;;;5052338;28;20579;-71
2021/01/22 01:31:27;;;;;;;1.40;1.30;;;8.30;99.90;;;;;;5052659;28;20205;-71
2021/01/22 01:33:53;;;;;;;1.02;0.93;;;8.40;99.90;;;;;;5051430;28;20212;-71
2021/01/22 01:36:19;;;;;;;0.82;0.80;;;8.40;99.90;;;;;;5052734;28;20224;-71
2021/01/22 01:38:46;;;;;;;1.55;1.17;;;8.40;99.90;;;;;;5052249;28;20201;-70
2021/01/22 01:41:13;;;;;;;1.38;0.95;;;8.50;99.90;;;;;;5052085;28;20228;-71
2021/01/22 01:43:39;;;;;;;1.63;1.02;;;8.50;99.90;;;;;;5052111;28;20208;-72
2021/01/22 01:46:05;;;;;;;1.20;0.90;;;8.50;99.90;;;;;;5052043;28;20225;-71
2021/01/22 01:48:31;;;;;;;1.50;1.02;;;8.60;99.90;;;;;;5053195;28;20669;-72
2021/01/22 01:50:58;;;;;;;1.10;1.00;;;8.60;99.90;;;;;;5051264;28;20204;-71
2021/01/22 01:53:25;;;;;;;2.85;1.10;;;8.50;99.90;;;;;;5051637;28;20212;-71
2021/01/22 01:55:51;;;;;;;1.10;1.00;;;8.60;99.90;;;;;;5051648;28;20234;-70
2021/01/22 01:58:19;;;;;;;1.10;0.90;;;8.60;99.90;;;;;;5053053;28;20205;-71
2021/01/22 02:00:45;;;;;;;1.48;1.17;;;8.60;99.90;;;;;;5052259;28;20236;-72
2021/01/22 02:03:12;;;;;;;1.50;1.00;;;8.60;99.90;;;;;;5051757;28;20200;-71
2021/01/22 02:05:38;;;;;;;3.97;1.63;;;8.60;99.90;;;;;;5052247;28;20225;-71
2021/01/22 02:08:05;;;;;;;1.10;1.00;;;8.60;99.90;;;;;;5052365;28;20259;-71
2021/01/22 02:10:33;;;;;;;1.38;1.20;;;8.70;99.90;;;;;;5052689;28;20231;-70
2021/01/22 02:13:01;;;;;;;2.00;0.98;;;8.70;99.90;;;;;;5051433;28;20201;-71
2021/01/22 02:15:29;;;;;;;2.38;1.20;;;8.60;99.90;;;;;;5051424;28;20310;-72
2021/01/22 02:17:57;;;;;;;1.10;1.00;;;8.60;99.90;;;;;;5051507;28;20574;-72
2021/01/22 02:20:46;;;;;;;1.63;1.48;;;8.60;99.90;;;;;;5051369;28;20413;-72
2021/01/22 02:23:13;;;;;;;1.50;1.20;;;8.50;99.90;;;;;;5050745;28;20205;-71
2021/01/22 02:25:42;;;;;;;1.27;1.17;;;8.50;99.90;;;;;;5052183;28;20572;-72
2021/01/22 02:28:12;;;;;;;1.20;1.00;;;8.50;99.90;;;;;;5051322;28;20201;-71
2021/01/22 02:30:41;;;;;;;1.33;1.17;;;8.50;99.90;;;;;;5051032;28;20193;-71
2021/01/22 02:33:07;;;;;;;2.03;1.20;;;8.50;99.90;;;;;;5049942;28;20432;-72
2021/01/22 02:35:34;;;;;;;1.92;1.30;;;8.50;99.90;;;;;;5051196;28;20573;-71
2021/01/22 02:38:02;;;;;;;2.00;1.30;;;8.50;99.90;;;;;;5051283;28;20263;-72
2021/01/22 02:40:30;;;;;;;1.85;1.20;;;8.50;99.90;;;;;;5050992;28;20224;-72
2021/01/22 02:42:58;;;;;;;1.50;1.20;;;8.40;99.90;;;;;;5051293;28;20216;-72
2021/01/22 02:45:25;;;;;;;2.15;1.10;;;8.40;99.90;;;;;;5051742;28;20237;-71
2021/01/22 02:47:52;;;;;;;1.48;1.10;;;8.40;99.90;;;;;;5052152;28;20224;-71
2021/01/22 02:50:29;;;;;;;1.35;1.10;;;8.40;99.90;;;;;;5051985;28;20201;-72
2021/01/22 02:52:59;;;;;;;1.25;1.15;;;8.40;99.90;;;;;;5050403;28;20633;-71
2021/01/22 02:55:26;;;;;;;1.48;1.10;;;8.30;99.90;;;;;;5051077;28;20293;-71
2021/01/22 02:57:58;;;;;;;1.52;1.40;;;8.30;99.90;;;;;;5050736;28;20208;-71
2021/01/22 03:00:30;;;;;;;1.70;1.52;;;8.20;99.90;;;;;;5050832;28;20669;-71
2021/01/22 03:03:05;;;;;;;1.30;1.20;;;8.20;99.90;;;;;;5049762;28;20228;-71
2021/01/22 03:05:33;;;;;;;1.73;1.10;;;8.20;99.90;;;;;;5051103;28;20220;-71
2021/01/22 03:08:04;;;;;;;1.55;1.42;;;8.20;99.90;;;;;;5050886;28;20292;-71
2021/01/22 03:10:31;;;;;;;2.00;1.10;;;8.10;99.90;;;;;;5050910;28;20202;-70
2021/01/22 03:12:58;;;;;;;1.85;1.10;;;8.10;99.90;;;;;;5050185;28;20200;-71
2021/01/22 03:15:26;;;;;;;1.60;1.50;;;8.10;99.90;;;;;;5050212;28;20236;-72
2021/01/22 03:18:11;;;;;;;2.00;1.30;;;8.00;99.90;;;;;;5050661;28;20212;-72
2021/01/22 03:20:37;;;;;;;3.20;1.67;;;8.00;99.90;;;;;;5050716;28;20228;-71
2021/01/22 03:23:04;;;;;;;1.38;1.10;;;8.00;99.90;;;;;;5050475;28;20240;-70
2021/01/22 03:25:30;;;;;;;1.98;1.70;;;7.90;99.90;;;;;;5051011;28;20708;-71
2021/01/22 03:27:56;;;;;;;3.70;1.35;;;7.90;99.90;;;;;;5050702;28;20401;-71
2021/01/22 03:30:23;;;;;;;1.75;1.45;;;7.90;99.90;;;;;;5050329;28;20255;-71
2021/01/22 03:32:50;;;;;;;1.85;1.40;;;7.90;99.90;;;;;;5050185;28;20615;-72
2021/01/22 03:35:17;;;;;;;2.80;1.42;;;7.90;99.90;;;;;;5053499;28;20229;-72
2021/01/22 03:37:43;;;;;;;1.40;1.10;;;7.90;99.90;;;;;;5054764;28;20202;-71
2021/01/22 03:40:10;;;;;;;2.83;1.35;;;7.80;99.90;;;;;;5054114;28;20229;-71
2021/01/22 03:42:36;;;;;;;1.30;1.17;;;7.80;99.90;;;;;;5053774;28;20201;-71
2021/01/22 03:45:03;;;;;;;2.45;1.77;;;7.80;99.90;;;;;;5054330;28;20224;-71
2021/01/22 03:47:29;;;;;;;2.45;1.50;;;7.80;99.90;;;;;;5053691;28;20209;-71
2021/01/22 03:49:56;;;;;;;3.25;1.42;;;7.80;99.90;;;;;;5053221;28;20201;-72
2021/01/22 03:52:22;;;;;;;1.58;1.45;;;7.80;99.90;;;;;;5052808;28;20699;-72
2021/01/22 03:54:48;;;;;;;3.13;1.30;;;7.90;99.90;;;;;;5053036;28;20225;-71
2021/01/22 03:57:14;;;;;;;2.03;1.30;;;7.90;99.90;;;;;;5052607;28;20205;-72
2021/01/22 03:59:41;;;;;;;2.30;1.40;;;7.90;99.90;;;;;;5053089;28;20220;-71
2021/01/22 04:02:07;;;;;;;2.55;1.33;;;7.90;99.90;;;;;;5053036;28;20577;-72
2021/01/22 04:04:33;;;;;;;3.30;1.50;;;7.90;99.90;;;;;;5052771;28;20248;-70
2021/01/22 04:07:01;;;;;;;1.52;1.25;;;7.90;99.90;;;;;;5053398;28;20339;-71
2021/01/22 04:09:27;;;;;;;3.88;1.83;;;7.90;99.90;;;;;;5053660;28;20236;-71
2021/01/22 04:11:53;;;;;;;1.67;1.52;;;7.90;99.90;;;;;;5052702;28;20631;-72
2021/01/22 04:14:19;;;;;;;2.63;1.85;;;7.90;99.90;;;;;;5053327;28;20412;-71
2021/01/22 04:16:45;;;;;;;3.25;1.25;;;7.90;99.90;;;;;;5053077;28;20216;-72
2021/01/22 04:19:12;;;;;;;2.70;1.50;;;7.80;99.90;;;;;;5052716;28;20205;-74
2021/01/22 04:21:38;;;;;;;2.03;1.38;;;7.80;99.90;;;;;;5117243;22;20286;-71
2021/01/22 04:24:06;;;;;;;3.47;1.70;;;7.80;99.90;;;;;;5050938;28;20201;-70
2021/01/22 04:26:32;;;;;;;4.28;1.70;;;7.80;99.90;;;;;;5050850;28;20209;-70
2021/01/22 04:28:58;;;;;;;3.20;1.40;;;7.90;99.90;;;;;;5051365;28;20205;-71
2021/01/22 04:31:24;;;;;;;1.77;1.35;;;7.90;99.90;;;;;;5051034;28;20200;-70
2021/01/22 04:33:51;;;;;;;3.08;1.75;;;7.90;99.90;;;;;;5050360;28;20209;-71
2021/01/22 04:36:17;;;;;;;2.55;1.27;;;8.00;99.90;;;;;;5050739;28;20228;-71
2021/01/22 04:38:43;;;;;;;4.10;1.85;;;8.00;99.90;;;;;;5064313;28;20196;-71
2021/01/22 04:41:11;;;;;;;2.22;2.00;;;8.00;99.90;;;;;;5070465;28;20597;-70
2021/01/22 04:43:44;;;;;;;2.70;1.25;;;8.10;99.90;;;;;;5070598;28;20200;-70
2021/01/22 04:46:10;;;;;;;2.63;1.20;;;8.10;99.90;;;;;;5070224;28;20235;-70
2021/01/22 04:48:37;;;;;;;1.67;1.30;;;8.10;99.90;;;;;;5070992;28;20207;-69
2021/01/22 04:51:05;;;;;;;1.58;1.30;;;8.20;99.90;;;;;;5069186;28;20197;-69
2021/01/22 04:53:34;;;;;;;2.10;1.40;;;8.20;99.90;;;;;;5069697;28;20208;-69
2021/01/22 04:56:01;;;;;;;1.73;1.10;;;8.20;99.90;;;;;;5068897;28;20232;-70
2021/01/22 04:58:29;;;;;;;0.90;0.80;;;8.30;99.90;;;;;;5068649;28;20200;-69
2021/01/22 05:00:55;;;;;;;2.22;0.90;;;8.30;99.90;;;;;;5070671;28;20289;-69
2021/01/22 05:03:26;;;;;;;3.35;1.38;;;8.30;99.90;;;;;;5069378;28;20196;-69
2021/01/22 05:05:53;;;;;;;1.00;0.82;;;8.40;99.90;;;;;;5070243;28;20220;-69
2021/01/22 05:08:19;;;;;;;1.63;1.00;;;8.40;99.90;;;;;;5069882;28;20236;-70
2021/01/22 05:10:46;;;;;;;4.07;1.27;;;8.40;99.90;;;;;;5069925;28;20200;-69
2021/01/22 05:13:12;;;;;;;1.02;0.80;;;8.40;99.90;;;;;;5070024;28;20588;-70
2021/01/22 05:15:39;;;;;;;2.15;1.10;;;8.40;99.90;;;;;;5065500;28;20766;-69
2021/01/22 05:18:08;;;;;;;2.20;1.10;;;8.30;99.90;;;;;;5050143;28;20469;-68
2021/01/22 05:20:35;;;;;;;0.98;0.73;;;8.30;99.90;;;;;;5050185;28;20704;-69
2021/01/22 05:23:05;;;;;;;1.35;0.90;;;8.40;99.90;;;;;;5049512;28;20217;-68
2021/01/22 05:25:33;;;;;;;1.40;1.10;;;8.40;99.90;;;;;;5049868;28;20217;-69
2021/01/22 05:28:00;;;;;;;1.20;0.90;;;8.50;99.90;;;;;;5049729;28;20939;-68
2021/01/22 05:30:27;;;;;;;0.93;0.82;;;8.50;99.90;;;;;;5069414;28;20691;-68
2021/01/22 05:33:14;;;;;;;0.93;0.82;;;8.40;99.90;;;;;;5069433;28;20204;-69
2021/01/22 05:35:41;;;;;;;1.27;1.00;;;8.40;99.90;;;;;;5069707;28;20228;-68
2021/01/22 05:38:07;;;;;;;2.55;0.90;;;8.30;99.90;;;;;;5069286;28;20692;-68
2021/01/22 05:40:33;;;;;;;0.82;0.77;;;8.30;99.90;;;;;;5069012;28;20231;-68
2021/01/22 05:43:00;;;;;;;1.65;0.80;;;8.30;99.90;;;;;;5068831;28;20204;-68
2021/01/22 05:45:40;;;;;;;1.10;0.80;;;8.30;99.90;;;;;;5069139;28;20232;-68
2021/01/22 05:48:18;;;;;;;1.08;0.98;;;8.30;99.90;;;;;;5069226;28;20585;-68
2021/01/22 05:50:46;;;;;;;1.52;0.80;;;8.30;99.90;;;;;;5069067;28;20201;-69
2021/01/22 05:53:13;;;;;;;1.58;0.85;;;8.20;99.90;;;;;;5068771;28;20204;-69
2021/01/22 05:55:39;;;;;;;0.93;0.70;;;8.20;99.90;;;;;;5069159;28;20224;-68
2021/01/22 05:58:06;;;;;;;2.03;0.90;;;8.20;99.90;;;;;;5068214;28;20234;-68
2021/01/22 06:00:32;;;;;;;1.20;0.80;;;8.20;99.90;;;;;;5069257;28;20718;-68
2021/01/22 06:02:58;;;;;;;1.10;0.90;;;8.20;99.90;;;;;;5068432;28;20620;-68
2021/01/22 06:05:26;;;;;;;1.70;1.40;;;8.10;99.90;;;;;;5068917;28;20281;-69
2021/01/22 06:08:07;;;;;;;1.00;0.82;;;8.10;99.90;;;;;;5068862;28;20254;-68
2021/01/22 06:10:38;;;;;;;0.90;0.80;;;8.10;99.90;;;;;;5068171;28;20196;-68
2021/01/22 06:13:07;;;;;;;1.30;0.90;;;8.10;99.90;;;;;;5068386;28;20254;-68
2021/01/22 06:15:33;;;;;;;1.33;0.90;;;8.20;99.90;;;;;;5068713;28;20707;-69
2021/01/22 06:18:02;;;;;;;1.38;0.85;;;8.10;99.90;;;;;;5068796;28;20200;-69
2021/01/22 06:20:31;;;;;;;1.58;0.75;;;8.00;99.90;;;;;;5068406;28;20247;-69
2021/01/22 06:23:06;;;;;;;1.75;1.10;;;8.00;99.90;;;;;;5068644;28;20231;-68
2021/01/22 06:25:34;;;;;;;5.72;1.20;;;8.00;99.90;;;;;;5068810;28;20875;-68
2021/01/22 06:28:03;;;;;;;1.20;0.95;;;8.00;99.90;;;;;;5068330;28;20196;-68
2021/01/22 06:30:31;;;;;;;1.02;0.88;;;8.00;99.90;;;;;;5068635;28;20254;-68
2021/01/22 06:32:59;;;;;;;0.95;0.85;;;8.00;99.90;;;;;;5067972;28;20211;-68
2021/01/22 06:35:27;;;;;;;1.25;1.15;;;8.00;99.90;;;;;;5068312;28;20231;-70
2021/01/22 06:37:56;;;;;;;1.15;1.05;;;8.00;99.90;;;;;;5068277;28;20273;-68
2021/01/22 06:40:22;;;;;;;3.00;1.30;;;8.00;99.90;;;;;;5068246;28;20235;-67
2021/01/22 06:42:49;;;;;;;1.67;0.98;;;8.00;99.90;;;;;;5068068;28;20200;-68
2021/01/22 06:45:18;;;;;;;1.10;1.00;;;8.00;99.90;;;;;;5067842;28;20225;-68
2021/01/22 06:47:57;;;;;;;1.05;0.82;;;8.00;99.90;;;;;;5068591;28;20204;-68
2021/01/22 06:50:24;;;;;;;3.42;1.20;;;8.10;99.90;;;;;;5067725;28;20211;-68
2021/01/22 06:53:15;;;;;;;2.83;1.02;;;8.10;99.90;;;;;;5067881;28;20692;-68
2021/01/22 06:56:08;;;;;;;1.80;1.10;;;8.00;99.90;;;;;;5053088;28;20575;-67
2021/01/22 06:58:34;;;;;;;1.80;0.98;;;8.00;99.90;;;;;;5068611;28;20612;-68
2021/01/22 07:01:02;;;;;;;5.57;1.27;;;8.00;99.90;;;;;;5067791;28;20220;-69
2021/01/22 07:03:49;;;;;;;1.23;1.00;;;8.00;99.90;;;;;;5059253;28;20288;-68
2021/01/22 07:06:55;;;;;;;3.20;0.93;;;8.00;99.90;;;;;;5063429;28;20220;-68
2021/01/22 07:09:23;;;;;;;1.30;1.00;;;8.00;99.90;;;;;;5069237;28;20257;-68
2021/01/22 07:11:58;;;;;;;2.45;0.98;;;7.90;99.90;;;;;;5071985;28;20226;-67
2021/01/22 07:14:42;;;;;;;2.03;1.10;;;7.90;99.90;;;;;;5071714;28;20673;-69
2021/01/22 07:17:16;;;;;;;4.60;1.20;;;7.90;99.90;;;;;;5071932;28;20219;-67
2021/01/22 07:19:50;;;;;;;1.20;0.93;;;7.90;99.90;;;;;;5071800;28;20639;-70
2021/01/22 07:22:16;;;;;;;1.20;0.80;;;7.90;99.90;;;;;;5071848;28;20208;-70
2021/01/22 07:24:46;;;;;;;2.25;1.00;;;7.90;99.90;;;;;;5072030;28;20224;-68
2021/01/22 07:27:14;;;;;;;1.85;1.10;;;7.90;99.90;;;;;;5071998;28;20254;-68
2021/01/22 07:29:41;;;;;;;2.25;1.15;;;7.90;99.90;;;;;;5072445;28;20201;-69
2021/01/22 07:32:09;;;;;;;1.60;1.30;;;7.90;99.90;;;;;;5071490;28;20200;-69
2021/01/22 07:34:53;;;;;;;1.60;1.00;;;7.90;99.90;;;;;;5072617;28;20226;-69
2021/01/22 07:37:21;;;;;;;1.52;1.20;;;8.00;99.90;;;;;;5072074;28;20212;-68
2021/01/22 07:39:49;;;;;;;2.20;1.00;;;8.00;99.90;;;;;;5072028;28;20623;-69
2021/01/22 07:42:17;;;;;;;1.27;1.00;;;8.00;99.90;;;;;;5071141;28;20204;-69
2021/01/22 07:44:45;;;;;;;1.40;1.00;;;7.90;99.90;;;;;;5072557;28;20742;-68
2021/01/22 07:47:24;;;;;;;1.10;0.98;;;8.00;99.90;;;;;;5071761;28;20254;-68
2021/01/22 07:49:58;;;;;;;1.38;0.90;;;8.10;99.90;;;;;;5071511;28;20274;-69
2021/01/22 07:52:24;;;;;;;1.60;1.23;;;8.10;99.90;;;;;;5071051;28;20203;-68
2021/01/22 07:54:52;;;;;;;1.30;1.10;;;8.20;99.90;;;;;;5071561;28;20259;-68
2021/01/22 07:57:19;;;;;;;1.00;0.88;;;8.20;99.90;;;;;;5071416;28;20995;-68
2021/01/22 07:59:47;;;;;;;1.52;0.85;;;8.30;99.90;;;;;;5071100;28;20238;-68
2021/01/22 08:02:18;;;;;;;2.25;1.48;;;8.40;99.90;;;;;;5070923;28;20200;-67
2021/01/22 08:04:46;;;;;;;1.77;1.05;;;8.70;99.90;;;;;;5071879;28;20589;-70
2021/01/22 08:07:12;;;;;;;1.00;0.80;;;9.00;99.90;;;;;;5071079;28;20607;-69
2021/01/22 08:09:52;;;;;;;1.17;0.98;;;9.20;99.90;;;;;;5071630;28;20204;-69
2021/01/22 08:12:18;;;;;;;1.10;0.90;;;9.30;99.90;;;;;;5071039;28;20737;-69
2021/01/22 08:14:45;;;;;;;2.85;1.00;;;9.30;99.90;;;;;;5071399;28;20236;-67
2021/01/22 08:17:13;;;;;;;1.85;1.10;;;9.30;99.90;;;;;;5070783;28;20201;-67
2021/01/22 08:19:39;;;;;;;2.35;1.00;;;9.40;99.90;;;;;;5070405;28;20212;-66
2021/01/22 08:22:05;;;;;;;0.95;0.80;;;9.60;99.90;;;;;;5070155;28;20215;-67
2021/01/22 08:24:32;;;;;;;1.35;1.10;;;9.90;99.90;;;;;;5071028;28;20231;-68
2021/01/22 08:27:01;;;;;;;1.25;1.00;;;10.30;99.90;;;;;;5071113;28;20235;-67
2021/01/22 08:29:29;;;;;;;1.98;1.05;;;10.70;99.90;;;;;;5070336;28;20204;-68
2021/01/22 08:31:56;;;;;;;1.55;0.80;;;10.80;99.90;;;;;;5070574;28;20775;-68
2021/01/22 08:34:23;;;;;;;1.48;1.20;;;11.00;99.90;;;;;;5070754;28;20235;-68
2021/01/22 08:36:50;;;;;;;1.10;0.90;;;11.40;99.90;;;;;;5070474;28;20209;-68
2021/01/22 08:39:17;;;;;;;1.23;0.90;;;11.50;99.90;;;;;;5070517;28;20204;-67
2021/01/22 08:41:43;;;;;;;1.17;0.95;;;11.60;99.90;;;;;;5069650;28;20224;-68
2021/01/22 08:44:10;;;;;;;5.13;1.05;;;11.70;99.90;;;;;;5070346;28;20212;-68
2021/01/22 08:46:47;;;;;;;1.15;0.90;;;11.80;99.90;;;;;;5070820;28;20204;-68
2021/01/22 08:49:14;;;;;;;1.60;1.02;;;12.00;99.90;;;;;;5070055;28;20212;-68
2021/01/22 08:51:40;;;;;;;1.42;1.10;;;12.30;99.90;;;;;;5070091;28;20200;-68
2021/01/22 08:54:07;;;;;;;1.50;0.98;;;12.20;99.90;;;;;;5070299;28;20564;-68
2021/01/22 08:56:34;;;;;;;1.10;1.00;;;12.40;99.90;;;;;;5070571;28;20197;-68
2021/01/22 08:59:09;;;;;;;1.55;1.20;;;12.60;99.90;;;;;;5069976;28;20239;-68
2021/01/22 09:01:51;;;;;;;1.38;1.10;;;12.90;99.90;;;;;;5069994;28;20228;-67
2021/01/22 09:04:26;;;;;;;1.10;0.82;;;13.60;99.90;;;;;;5069829;28;20675;-68
2021/01/22 09:06:54;;;;;;;1.60;1.15;;;13.90;99.90;;;;;;5057911;28;20196;-68
2021/01/22 09:09:39;;;;;;;1.30;1.02;;;13.90;99.90;;;;;;5050167;28;20208;-68
2021/01/22 09:12:14;;;;;;;1.33;0.90;;;13.80;99.70;;;;;;5049287;28;20254;-68
2021/01/22 09:14:59;;;;;;;1.63;1.05;;;13.40;99.90;;;;;;5050144;28;20228;-68
2021/01/22 09:17:44;;;;;;;2.75;0.90;;;13.30;99.90;;;;;;5049525;28;20669;-68
2021/01/22 09:20:15;;;;;;;1.55;1.00;;;12.90;99.90;;;;;;5049670;28;20720;-68
2021/01/22 09:22:42;;;;;;;2.03;0.90;;;12.70;99.90;;;;;;5049113;28;20258;-68
2021/01/22 09:25:11;;;;;;;1.20;0.90;;;12.60;99.90;;;;;;5049441;28;20787;-67
2021/01/22 09:27:38;;;;;;;2.22;1.00;;;13.00;99.90;;;;;;5049645;28;20208;-67
2021/01/22 09:30:07;;;;;;;3.17;1.00;;;13.60;99.90;;;;;;5049852;28;20197;-68
2021/01/22 09:32:33;;;;;;;3.75;1.00;;;14.00;99.50;;;;;;5048543;28;20201;-68
2021/01/22 09:35:00;;;;;;;2.42;0.95;;;14.10;99.20;;;;;;5049896;28;20707;-68
2021/01/22 09:37:26;;;;;;;1.33;1.00;;;14.60;98.80;;;;;;5050181;28;20201;-69
2021/01/22 09:39:53;;;;;;;1.20;0.80;;;15.80;97.90;;;;;;5049584;28;20466;-69
2021/01/22 09:42:19;;;;;;;2.67;1.10;;;16.50;96.80;;;;;;5049157;28;20962;-68
2021/01/22 09:44:45;;;;;;;2.00;1.20;;;16.30;96.30;;;;;;5049771;28;20486;-69
2021/01/22 09:47:11;;;;;;;1.80;1.20;;;16.10;96.60;;;;;;5049531;28;20470;-68
2021/01/22 09:49:37;;;;;;;1.77;1.20;;;16.60;96.20;;;;;;5049874;28;20459;-69
2021/01/22 09:52:05;;;;;;;1.10;0.90;;;17.10;94.90;;;;;;5048930;28;20513;-69
2021/01/22 09:54:31;;;;;;;1.63;1.00;;;18.00;94.70;;;;;;5049429;28;20484;-68
2021/01/22 09:56:57;;;;;;;1.60;1.10;;;18.80;93.80;;;;;;5049653;28;20471;-67
2021/01/22 09:59:23;;;;;;;1.50;1.03;;;18.30;93.80;;;;;;5049481;28;20459;-67
2021/01/22 10:01:50;;;;;;;2.03;1.57;;;16.30;94.70;;;;;;5048778;28;21014;-68
2021/01/22 10:04:16;;;;;;;1.50;1.00;;;14.70;96.50;;;;;;5048947;28;20459;-68
2021/01/22 10:06:42;;;;;;;1.20;1.10;;;13.60;97.60;;;;;;5049579;28;20467;-67
2021/01/22 10:09:10;;;;;;;1.67;1.20;;;13.20;98.60;;;;;;5048963;28;20201;-68
2021/01/22 10:11:37;;;;;;;1.47;1.37;;;13.30;98.50;;;;;;5048661;28;21040;-67
2021/01/22 10:14:04;;;;;;;1.23;1.00;;;13.50;98.20;;;;;;5048860;28;20459;-68
2021/01/22 10:16:30;;;;;;;0.93;0.80;;;13.80;98.30;;;;;;5049221;28;20702;-68
2021/01/22 10:18:56;;;;;;;2.10;1.40;;;14.10;97.80;;;;;;5049424;28;20467;-66
2021/01/22 10:21:23;;;;;;;1.17;1.07;;;14.10;98.10;;;;;;5048470;28;20582;-67
2021/01/22 10:23:50;;;;;;;1.00;0.90;;;13.90;98.20;;;;;;5093772;22;21019;-92
2021/01/22 10:26:33;;;;;;;1.20;1.08;;;13.80;98.20;;;;;;5086455;28;20526;-92
2021/01/22 10:29:06;;;;;;;3.55;1.20;;;13.20;98.80;;;;;;5083253;28;20208;-93
2021/01/22 10:31:32;;;;;;;3.15;1.55;;;13.10;99.30;;;;;;5082478;28;20251;-92
2021/01/22 10:33:59;;;;;;;1.95;1.00;;;13.10;99.00;;;;;;5083812;28;20790;-93
2021/01/22 10:36:31;;;;;;;3.10;1.23;;;13.40;99.00;;;;;;5086733;28;20214;-92
2021/01/22 10:39:01;;;;;;;1.83;1.23;;;13.50;98.70;;;;;;5083573;28;20211;-93
2021/01/22 10:41:29;;;;;;;1.33;1.20;;;14.20;98.40;;;;;;5081710;28;20263;-93
2021/01/22 10:43:57;;;;;;;2.90;1.30;;;15.80;96.70;;;;;;5075111;22;20514;-72
2021/01/22 10:46:23;;;;;;;1.80;1.17;;;17.80;94.90;;;;;;5059260;28;20471;-71
2021/01/22 10:48:49;;;;;;;2.20;1.10;;;18.70;93.70;;;;;;5058876;28;20459;-72
2021/01/22 10:51:16;;;;;;;2.23;1.03;;;19.30;92.80;;;;;;5053724;28;21014;-72
2021/01/22 10:53:42;;;;;;;1.63;1.10;;;19.40;92.20;;;;;;5048934;28;20473;-72
2021/01/22 10:56:08;;;;;;;1.33;0.80;;;19.90;92.40;;;;;;5050071;28;20480;-72
2021/01/22 10:58:34;;;;;;;1.57;1.00;;;19.30;91.90;;;;;;5050145;28;20951;-73
2021/01/22 11:01:02;;;;;;;1.37;1.10;;;19.70;92.00;;;;;;5049666;28;20822;-72
2021/01/22 11:03:28;;;;;;;1.87;0.90;;;19.10;91.80;;;;;;5049236;28;20471;-72
2021/01/22 11:05:54;;;;;;;1.10;0.90;;;18.40;92.40;;;;;;5049214;28;20480;-72
2021/01/22 11:08:20;;;;;;;1.73;1.10;;;18.90;92.50;;;;;;5049877;28;20817;-72
2021/01/22 11:10:47;;;;;;;1.73;1.07;;;19.70;91.70;;;;;;5049478;28;20475;-72
2021/01/22 11:13:13;;;;;;;1.30;1.20;;;20.80;90.70;;;;;;5048771;28;20878;-72
2021/01/22 11:15:39;;;;;;;2.17;1.30;;;22.00;89.60;;;;;;5048677;28;20848;-72
2021/01/22 11:18:06;;;;;;;1.53;1.13;;;21.60;88.00;;;;;;5048692;28;20509;-72
2021/01/22 11:20:32;;;;;;;1.10;0.90;;;19.60;90.10;;;;;;5048720;28;20929;-71
2021/01/22 11:22:59;;;;;;;1.63;1.10;;;17.30;91.80;;;;;;5048147;28;20463;-71
2021/01/22 11:25:25;;;;;;;1.20;1.10;;;16.00;93.50;;;;;;5048451;28;21014;-71
2021/01/22 11:27:51;;;;;;;1.10;1.00;;;15.10;94.40;;;;;;5049051;28;20459;-71
2021/01/22 11:30:18;;;;;;;1.73;1.30;;;14.50;94.80;;;;;;5048413;28;20471;-71
2021/01/22 11:32:44;;;;;;;2.77;1.50;;;14.10;95.70;;;;;;5048430;28;20474;-71
2021/01/22 11:35:12;;;;;;;1.00;0.90;;;13.90;95.90;;;;;;5048602;28;20502;-71
2021/01/22 11:37:39;;;;;;;1.20;0.90;;;13.80;96.30;;;;;;5048851;28;20467;-72
2021/01/22 11:40:07;;;;;;;1.50;1.10;;;14.20;96.00;;;;;;5048216;28;20459;-72
2021/01/22 11:42:34;;;;;;;1.57;1.10;;;14.20;96.00;;;;;;5048130;28;20464;-72
2021/01/22 11:45:00;;;;;;;1.08;0.90;;;14.30;95.90;;;;;;5048849;28;20490;-72
2021/01/22 11:47:26;;;;;;;1.38;1.23;;;14.50;96.00;;;;;;5048658;28;20378;-71
2021/01/22 11:49:53;;;;;;;1.50;0.90;;;14.40;95.70;;;;;;5041321;28;20201;-72
2021/01/22 11:52:20;;;;;;;1.67;1.20;;;13.90;96.20;;;;;;5045512;28;20896;-72
2021/01/22 11:54:46;;;;;;;1.23;1.10;;;13.80;96.80;;;;;;5044312;28;20283;-72
2021/01/22 11:57:12;;;;;;;2.27;1.20;;;13.70;96.80;;;;;;5050820;28;21008;-72
2021/01/22 11:59:39;;;;;;;1.00;0.90;;;13.60;96.80;;;;;;5050467;28;20520;-72
2021/01/22 12:02:05;;;;;;;1.10;1.00;;;13.50;96.80;;;;;;5050470;28;20517;-71
2021/01/22 12:04:31;;;;;;;1.60;1.20;;;13.30;97.00;;;;;;5048899;28;20475;-71
2021/01/22 12:06:57;;;;;;;2.22;1.20;;;13.20;96.90;;;;;;5051783;28;20571;-71
2021/01/22 12:09:24;;;;;;;1.30;1.00;;;13.30;96.80;;;;;;5050371;28;20557;-72
2021/01/22 12:11:51;;;;;;;1.90;1.20;;;13.20;96.80;;;;;;5050603;28;20645;-72
2021/01/22 12:14:17;;;;;;;3.35;1.20;;;13.10;96.50;;;;;;5050392;28;20225;-72
2021/01/22 12:16:45;;;;;;;2.00;1.00;;;13.10;96.90;;;;;;5050786;28;20205;-72
2021/01/22 12:19:11;;;;;;;1.27;0.90;;;13.30;96.80;;;;;;5051647;28;20208;-71
2021/01/22 12:21:37;;;;;;;1.48;1.00;;;13.30;96.60;;;;;;5050254;28;20197;-69
2021/01/22 12:24:04;;;;;;;1.50;0.98;;;13.40;96.40;;;;;;5049192;28;20205;-72
2021/01/22 12:26:31;;;;;;;1.25;1.13;;;13.20;96.30;;;;;;5051065;28;20216;-72
2021/01/22 12:28:58;;;;;;;1.52;1.05;;;13.10;96.40;;;;;;5051362;28;20197;-72
2021/01/22 12:31:24;;;;;;;1.23;0.95;;;13.00;96.20;;;;;;5051320;28;20731;-72
2021/01/22 12:33:50;;;;;;;1.00;0.82;;;13.30;96.30;;;;;;5048812;28;20200;-72
2021/01/22 12:36:17;;;;;;;1.20;1.00;;;13.80;95.60;;;;;;5050830;28;20225;-73
2021/01/22 12:38:43;;;;;;;1.10;1.00;;;14.80;94.60;;;;;;5051742;28;20521;-72
2021/01/22 12:41:09;;;;;;;1.30;0.97;;;16.20;93.10;;;;;;5051757;28;21342;-72
2021/01/22 12:43:37;;;;;;;1.23;1.00;;;16.80;92.10;;;;;;5047854;28;20480;-72
2021/01/22 12:46:03;;;;;;;2.30;1.33;;;16.60;92.00;;;;;;5049259;28;20480;-72
2021/01/22 12:48:30;;;;;;;1.13;0.87;;;16.20;92.00;;;;;;5050947;28;20877;-72
2021/01/22 12:50:57;;;;;;;1.30;0.93;;;15.20;92.60;;;;;;5050295;28;20488;-72
2021/01/22 12:53:23;;;;;;;1.10;0.93;;;14.60;93.30;;;;;;5049773;28;20455;-72
2021/01/22 12:55:49;;;;;;;1.30;1.00;;;14.20;94.00;;;;;;5049275;28;21062;-72
2021/01/22 12:58:15;;;;;;;1.10;0.80;;;13.80;94.40;;;;;;5050073;28;20463;-72